createdAt,value
2022-11-24T00:01:04.385Z,1.30
2022-11-24T00:02:07.135Z,1.52
2022-11-24T00:03:10.016Z,1.50
2022-11-24T00:04:12.823Z,1.10
2022-11-24T00:05:15.585Z,1.77
2022-11-24T00:06:18.689Z,1.12
2022-11-24T00:07:21.422Z,1.45
2022-11-24T00:08:24.366Z,1.08
2022-11-24T00:09:27.057Z,1.48
2022-11-24T00:10:29.822Z,1.60
2022-11-24T00:11:35.456Z,1.48
2022-11-24T00:12:38.131Z,1.23
2022-11-24T00:13:41.411Z,1.98
2022-11-24T00:14:44.815Z,1.75
2022-11-24T00:15:47.503Z,1.85
2022-11-24T00:16:50.375Z,1.48
2022-11-24T00:17:53.324Z,1.70
2022-11-24T00:18:58.595Z,1.27
2022-11-24T00:20:01.416Z,1.23
2022-11-24T00:21:04.796Z,1.37
2022-11-24T00:22:07.671Z,1.25
2022-11-24T00:23:10.481Z,1.20
2022-11-24T00:24:14.183Z,1.70
2022-11-24T00:25:17.229Z,1.52
2022-11-24T00:26:28.971Z,1.42
2022-11-24T00:27:31.917Z,1.92
2022-11-24T00:28:38.406Z,1.80
2022-11-24T00:29:41.286Z,1.10
2022-11-24T00:30:44.175Z,1.85
2022-11-24T00:31:46.935Z,1.42
2022-11-24T00:32:49.683Z,1.60
2022-11-24T00:33:54.747Z,1.35
2022-11-24T00:34:57.485Z,1.62
2022-11-24T00:36:00.884Z,2.12
2022-11-24T00:37:03.781Z,1.95
2022-11-24T00:38:06.552Z,1.20
2022-11-24T00:39:14.162Z,1.85
2022-11-24T00:40:17.311Z,1.67
2022-11-24T00:41:20.075Z,2.08
2022-11-24T00:42:22.798Z,1.65
2022-11-24T00:43:25.530Z,2.30
2022-11-24T00:44:28.156Z,2.15
2022-11-24T00:45:30.973Z,1.60
2022-11-24T00:46:34.199Z,1.65
2022-11-24T00:47:37.077Z,1.60
2022-11-24T00:48:39.980Z,1.35
2022-11-24T00:49:42.788Z,1.87
2022-11-24T00:50:45.422Z,1.35
2022-11-24T00:51:48.088Z,2.28
2022-11-24T00:52:50.786Z,1.50
2022-11-24T00:53:53.572Z,1.90
2022-11-24T00:54:56.293Z,1.70
2022-11-24T00:55:59.611Z,1.37
2022-11-24T00:57:02.340Z,1.98
2022-11-24T00:58:05.982Z,2.33
2022-11-24T00:59:08.771Z,1.98
2022-11-24T01:00:11.804Z,1.92
2022-11-24T01:01:18.206Z,1.50
2022-11-24T01:02:21.059Z,2.12
2022-11-24T01:03:23.889Z,1.70
2022-11-24T01:04:26.758Z,1.67
2022-11-24T01:05:29.471Z,1.83
2022-11-24T01:06:32.914Z,2.08
2022-11-24T01:07:36.149Z,1.95
2022-11-24T01:08:40.725Z,2.67
2022-11-24T01:09:45.823Z,1.90
2022-11-24T01:10:48.531Z,1.75
2022-11-24T01:12:04.356Z,2.40
2022-11-24T01:13:07.314Z,1.83
2022-11-24T01:14:10.072Z,1.85
2022-11-24T01:15:12.784Z,2.05
2022-11-24T01:16:25.101Z,1.80
2022-11-24T01:17:27.899Z,2.28
2022-11-24T01:18:30.786Z,2.20
2022-11-24T01:19:33.606Z,1.65
2022-11-24T01:20:36.988Z,1.90
2022-11-24T01:21:39.957Z,1.83
2022-11-24T01:22:42.669Z,2.47
2022-11-24T01:23:45.334Z,2.15
2022-11-24T01:24:49.237Z,1.50
2022-11-24T01:25:51.945Z,1.65
2022-11-24T01:26:54.706Z,2.30
2022-11-24T01:27:57.447Z,1.98
2022-11-24T01:29:00.475Z,2.35
2022-11-24T01:30:05.282Z,2.30
2022-11-24T01:31:08.974Z,2.62
2022-11-24T01:32:11.842Z,2.30
2022-11-24T01:33:14.724Z,1.95
2022-11-24T01:34:17.588Z,2.33
2022-11-24T01:35:20.235Z,2.20
2022-11-24T01:36:23.076Z,2.53
2022-11-24T01:37:26.053Z,2.30
2022-11-24T01:38:29.046Z,2.12
2022-11-24T01:39:31.591Z,2.00
2022-11-24T01:40:34.293Z,2.70
2022-11-24T01:41:37.129Z,1.87
2022-11-24T01:42:51.856Z,1.65
2022-11-24T01:43:56.413Z,2.17
2022-11-24T01:45:32.192Z,2.78
2022-11-24T01:46:58.153Z,2.20
2022-11-24T01:48:05.738Z,1.85
2022-11-24T01:49:08.537Z,2.50
2022-11-24T01:50:16.766Z,2.08
2022-11-24T01:51:25.855Z,2.33
2022-11-24T01:52:34.474Z,2.17
2022-11-24T01:53:40.499Z,2.22
2022-11-24T01:54:48.364Z,3.50
2022-11-24T01:55:53.424Z,2.03
2022-11-24T01:57:00.894Z,3.12
2022-11-24T01:58:26.630Z,3.12
2022-11-24T01:59:29.538Z,3.35
2022-11-24T02:00:35.509Z,3.05
2022-11-24T02:01:38.348Z,2.75
2022-11-24T02:02:43.729Z,2.97
2022-11-24T02:03:49.221Z,2.45
2022-11-24T02:04:52.641Z,2.80
2022-11-24T02:06:00.319Z,2.62
2022-11-24T02:07:06.206Z,2.85
2022-11-24T02:08:21.888Z,2.90
2022-11-24T02:09:32.745Z,2.37
2022-11-24T02:11:40.642Z,2.37
2022-11-24T02:12:49.114Z,2.40
2022-11-24T02:13:54.409Z,2.30
2022-11-24T02:14:58.610Z,2.33
2022-11-24T02:16:02.703Z,2.92
2022-11-24T02:17:05.736Z,3.47
2022-11-24T02:18:08.571Z,2.78
2022-11-24T02:19:35.784Z,2.72
2022-11-24T02:20:38.740Z,2.37
2022-11-24T02:21:41.707Z,3.70
2022-11-24T02:22:56.300Z,2.72
2022-11-24T02:24:01.648Z,3.42
2022-11-24T02:25:27.173Z,2.87
2022-11-24T02:26:43.818Z,3.03
2022-11-24T02:27:50.846Z,2.25
2022-11-24T02:28:57.012Z,1.90
2022-11-24T02:29:59.769Z,2.95
2022-11-24T02:31:03.801Z,3.67
2022-11-24T02:32:09.549Z,3.05
2022-11-24T02:33:13.133Z,3.45
2022-11-24T02:34:16.172Z,2.95
2022-11-24T02:35:19.349Z,3.85
2022-11-24T02:36:22.066Z,3.17
2022-11-24T02:37:24.818Z,3.37
2022-11-24T02:38:35.518Z,3.15
2022-11-24T02:39:38.774Z,2.33
2022-11-24T02:40:46.844Z,4.20
2022-11-24T02:41:55.182Z,3.00
2022-11-24T02:43:08.115Z,3.15
2022-11-24T02:44:14.175Z,3.53
2022-11-24T02:45:17.080Z,2.78
2022-11-24T02:46:19.748Z,3.40
2022-11-24T02:47:22.446Z,3.92
2022-11-24T02:48:28.863Z,3.35
2022-11-24T02:49:31.665Z,3.28
2022-11-24T02:50:34.896Z,3.53
2022-11-24T02:51:37.781Z,4.12
2022-11-24T02:52:40.628Z,3.30
2022-11-24T02:53:43.617Z,4.10
2022-11-24T02:54:46.336Z,5.18
2022-11-24T02:55:49.051Z,4.85
2022-11-24T02:56:52.373Z,4.05
2022-11-24T02:57:55.253Z,3.45
2022-11-24T02:58:57.860Z,3.10
2022-11-24T03:00:00.942Z,3.72
2022-11-24T03:01:03.818Z,3.20
2022-11-24T03:02:06.677Z,4.18
2022-11-24T03:03:09.652Z,4.07
2022-11-24T03:04:12.962Z,4.37
2022-11-24T03:05:15.821Z,3.72
2022-11-24T03:06:18.525Z,3.45
2022-11-24T03:07:21.472Z,4.03
2022-11-24T03:08:24.225Z,3.62
2022-11-24T03:09:26.975Z,3.78
2022-11-24T03:10:29.945Z,4.68
2022-11-24T03:11:33.076Z,4.60
2022-11-24T03:12:35.912Z,3.78
2022-11-24T03:13:38.558Z,4.12
2022-11-24T03:14:41.227Z,4.03
2022-11-24T03:15:44.035Z,4.20
2022-11-24T03:16:46.736Z,3.90
2022-11-24T03:17:50.573Z,4.35
2022-11-24T03:18:53.690Z,4.37
2022-11-24T03:20:00.155Z,3.65
2022-11-24T03:21:05.994Z,4.37
2022-11-24T03:22:09.011Z,3.65
2022-11-24T03:23:11.911Z,4.97
2022-11-24T03:24:14.517Z,3.85
2022-11-24T03:25:17.330Z,3.62
2022-11-24T03:26:24.412Z,4.85
2022-11-24T03:27:27.374Z,3.92
2022-11-24T03:28:30.059Z,4.18
2022-11-24T03:29:32.852Z,4.87
2022-11-24T03:30:35.507Z,4.57
2022-11-24T03:31:38.424Z,4.10
2022-11-24T03:32:45.374Z,4.75
2022-11-24T03:33:48.132Z,4.40
2022-11-24T03:34:50.930Z,4.72
2022-11-24T03:35:53.628Z,4.60
2022-11-24T03:36:56.371Z,4.90
2022-11-24T03:37:59.086Z,5.12
2022-11-24T03:39:01.853Z,4.62
2022-11-24T03:40:05.157Z,4.72
2022-11-24T03:41:07.871Z,4.78
2022-11-24T03:42:10.550Z,4.62
2022-11-24T03:43:13.304Z,5.43
2022-11-24T03:44:15.954Z,4.90
2022-11-24T03:46:42.461Z,5.35
2022-11-24T03:47:45.177Z,4.68
2022-11-24T03:48:47.944Z,3.97
2022-11-24T03:49:50.791Z,3.72
2022-11-24T03:50:58.292Z,3.80
2022-11-24T03:52:06.533Z,5.12
2022-11-24T03:53:11.132Z,4.15
2022-11-24T03:54:13.740Z,3.83
2022-11-24T03:55:16.641Z,3.65
2022-11-24T03:56:19.309Z,3.92
2022-11-24T03:57:22.377Z,4.30
2022-11-24T03:58:25.660Z,5.35
2022-11-24T03:59:28.417Z,4.45
2022-11-24T04:00:31.810Z,4.60
2022-11-24T04:01:34.881Z,4.45
2022-11-24T04:02:38.214Z,3.75
2022-11-24T04:03:41.009Z,3.67
2022-11-24T04:04:48.464Z,5.03
2022-11-24T04:05:52.458Z,5.57
2022-11-24T04:06:55.128Z,4.70
2022-11-24T04:07:58.221Z,4.62
2022-11-24T04:09:01.207Z,5.43
2022-11-24T04:10:04.240Z,4.68
2022-11-24T04:11:07.446Z,4.72
2022-11-24T04:12:29.088Z,3.90
2022-11-24T04:13:31.800Z,5.15
2022-11-24T04:14:34.894Z,5.32
2022-11-24T04:15:42.322Z,4.65
2022-11-24T04:16:45.075Z,4.55
2022-11-24T04:17:49.918Z,5.53
2022-11-24T04:18:54.035Z,5.00
2022-11-24T04:19:56.683Z,5.20
2022-11-24T04:20:59.551Z,4.40
2022-11-24T04:22:02.192Z,4.95
2022-11-24T04:23:05.039Z,4.95
2022-11-24T04:24:07.909Z,5.60
2022-11-24T04:25:11.459Z,5.28
2022-11-24T04:26:14.388Z,5.18
2022-11-24T04:27:17.370Z,4.47
2022-11-24T04:28:20.420Z,5.35
2022-11-24T04:29:23.502Z,4.10
2022-11-24T04:30:28.173Z,5.22
2022-11-24T04:31:30.908Z,4.00
2022-11-24T04:32:33.674Z,4.95
2022-11-24T04:33:36.571Z,5.95
2022-11-24T04:34:39.243Z,5.65
2022-11-24T04:35:41.914Z,6.80
2022-11-24T04:36:44.738Z,5.03
2022-11-24T04:37:47.879Z,5.62
2022-11-24T04:39:22.907Z,4.45
2022-11-24T04:40:17.373Z,5.40
2022-11-24T04:41:20.131Z,4.60
2022-11-24T04:42:22.702Z,5.43
2022-11-24T04:43:25.678Z,5.68
2022-11-24T04:44:28.495Z,4.80
2022-11-24T04:45:31.259Z,5.55
2022-11-24T04:46:34.196Z,4.68
2022-11-24T04:47:36.911Z,4.10
2022-11-24T04:48:42.488Z,4.85
2022-11-24T04:49:47.446Z,6.32
2022-11-24T04:50:50.267Z,5.60
2022-11-24T04:51:52.978Z,5.97
2022-11-24T04:52:56.091Z,5.35
2022-11-24T04:53:58.784Z,4.28
2022-11-24T04:55:01.498Z,4.97
2022-11-24T04:56:06.523Z,5.80
2022-11-24T04:57:17.010Z,6.30
2022-11-24T04:58:20.233Z,5.90
2022-11-24T04:59:23.039Z,5.50
2022-11-24T05:00:25.940Z,5.15
2022-11-24T05:01:28.737Z,5.40
2022-11-24T05:02:31.527Z,4.95
2022-11-24T05:03:34.747Z,6.20
2022-11-24T05:04:38.256Z,5.75
2022-11-24T05:05:41.134Z,6.03
2022-11-24T05:06:43.865Z,6.07
2022-11-24T05:07:47.189Z,6.03
2022-11-24T05:08:51.398Z,5.78
2022-11-24T05:10:13.315Z,4.47
2022-11-24T05:11:16.749Z,5.25
2022-11-24T05:12:19.662Z,5.32
2022-11-24T05:13:22.516Z,5.85
2022-11-24T05:14:25.392Z,5.62
2022-11-24T05:15:28.715Z,6.03
2022-11-24T05:16:31.642Z,5.90
2022-11-24T05:17:39.100Z,4.87
2022-11-24T05:18:41.941Z,5.93
2022-11-24T05:19:44.637Z,4.70
2022-11-24T05:20:47.647Z,4.70
2022-11-24T05:21:52.436Z,5.03
2022-11-24T05:22:55.032Z,5.28
2022-11-24T05:23:57.712Z,6.22
2022-11-24T05:25:00.443Z,5.37
2022-11-24T05:26:04.060Z,5.97
2022-11-24T05:27:06.843Z,6.05
2022-11-24T05:28:10.339Z,4.57
2022-11-24T05:29:13.329Z,4.47
2022-11-24T05:30:16.477Z,4.32
2022-11-24T05:31:19.373Z,5.80
2022-11-24T05:32:22.256Z,4.53
2022-11-24T05:33:25.013Z,5.12
2022-11-24T05:34:28.609Z,7.20
2022-11-24T05:35:31.567Z,4.53
2022-11-24T05:37:07.189Z,6.18
2022-11-24T05:38:10.244Z,5.40
2022-11-24T05:39:13.062Z,4.75
2022-11-24T05:40:16.209Z,6.93
2022-11-24T05:41:19.200Z,5.12
2022-11-24T05:42:46.290Z,5.60
2022-11-24T05:43:50.309Z,5.10
2022-11-24T05:44:53.570Z,5.95
2022-11-24T05:46:00.065Z,4.22
2022-11-24T05:47:03.203Z,4.32
2022-11-24T05:48:07.941Z,3.87
2022-11-24T05:49:10.933Z,6.50
2022-11-24T05:50:16.316Z,4.35
2022-11-24T05:51:19.090Z,4.43
2022-11-24T05:52:21.976Z,4.85
2022-11-24T05:53:25.868Z,3.97
2022-11-24T05:54:28.606Z,4.03
2022-11-24T05:55:31.666Z,4.10
2022-11-24T05:56:34.463Z,3.55
2022-11-24T05:57:37.767Z,4.72
2022-11-24T05:58:43.479Z,4.57
2022-11-24T05:59:46.479Z,4.25
2022-11-24T06:00:49.282Z,3.72
2022-11-24T06:01:52.231Z,4.70
2022-11-24T06:02:58.288Z,4.40
2022-11-24T06:04:01.230Z,4.75
2022-11-24T06:05:04.181Z,3.92
2022-11-24T06:06:07.652Z,4.12
2022-11-24T06:07:12.224Z,4.22
2022-11-24T06:08:22.365Z,3.15
2022-11-24T06:09:27.556Z,3.10
2022-11-24T06:10:30.856Z,3.87
2022-11-24T06:11:33.784Z,3.47
2022-11-24T06:12:36.530Z,4.30
2022-11-24T06:13:42.112Z,3.42
2022-11-24T06:14:45.301Z,4.50
2022-11-24T06:15:48.212Z,3.62
2022-11-24T06:16:51.005Z,4.43
2022-11-24T06:17:55.949Z,3.62
2022-11-24T06:18:58.731Z,3.50
2022-11-24T06:20:01.692Z,2.97
2022-11-24T06:21:12.576Z,4.28
2022-11-24T06:23:24.343Z,2.97
2022-11-24T06:24:28.663Z,3.95
2022-11-24T06:25:31.359Z,3.28
2022-11-24T06:26:34.049Z,5.03
2022-11-24T06:27:36.788Z,3.53
2022-11-24T06:28:39.670Z,3.12
2022-11-24T06:29:43.033Z,4.15
2022-11-24T06:30:46.003Z,4.32
2022-11-24T06:31:48.832Z,4.30
2022-11-24T06:32:55.350Z,4.30
2022-11-24T06:33:59.778Z,4.40
2022-11-24T06:35:02.495Z,4.65
2022-11-24T06:36:08.119Z,4.78
2022-11-24T06:37:11.182Z,4.03
2022-11-24T06:38:17.049Z,3.15
2022-11-24T06:39:22.930Z,3.92
2022-11-24T06:40:25.802Z,4.12
2022-11-24T06:41:28.824Z,3.67
2022-11-24T06:42:31.578Z,3.62
2022-11-24T06:43:35.821Z,4.00
2022-11-24T06:44:38.522Z,3.67
2022-11-24T06:45:41.296Z,3.87
2022-11-24T06:46:44.252Z,3.58
2022-11-24T06:47:47.224Z,4.10
2022-11-24T06:48:53.758Z,4.30
2022-11-24T06:49:56.953Z,6.32
2022-11-24T06:51:08.647Z,3.85
2022-11-24T06:52:11.453Z,3.50
2022-11-24T06:53:14.198Z,4.18
2022-11-24T06:54:21.525Z,3.72
2022-11-24T06:55:24.467Z,3.72
2022-11-24T06:56:27.468Z,5.43
2022-11-24T06:57:31.788Z,4.80
2022-11-24T06:58:35.336Z,3.83
2022-11-24T06:59:38.329Z,4.53
2022-11-24T07:00:41.223Z,3.90
2022-11-24T07:01:44.115Z,3.85
2022-11-24T07:02:46.949Z,4.05
2022-11-24T07:03:50.735Z,5.20
2022-11-24T07:04:53.412Z,4.60
2022-11-24T07:06:00.135Z,4.70
2022-11-24T07:07:03.348Z,4.53
2022-11-24T07:08:06.321Z,4.75
2022-11-24T07:10:19.401Z,4.83
2022-11-24T07:11:24.259Z,6.12
2022-11-24T07:12:27.251Z,4.65
2022-11-24T07:13:30.110Z,4.20
2022-11-24T07:14:33.697Z,5.60
2022-11-24T07:15:36.918Z,4.47
2022-11-24T07:16:43.604Z,4.10
2022-11-24T07:17:46.433Z,3.08
2022-11-24T07:18:53.983Z,4.53
2022-11-24T07:19:56.748Z,4.20
2022-11-24T07:20:59.526Z,4.70
2022-11-24T07:22:03.047Z,4.20
2022-11-24T07:23:07.184Z,4.22
2022-11-24T07:24:09.985Z,3.72
2022-11-24T07:25:14.893Z,4.55
2022-11-24T07:26:18.346Z,4.03
2022-11-24T07:27:21.075Z,4.95
2022-11-24T07:28:24.430Z,5.12
2022-11-24T07:29:27.104Z,4.90
2022-11-24T07:30:29.996Z,5.03
2022-11-24T07:31:32.782Z,4.75
2022-11-24T07:32:35.771Z,3.22
2022-11-24T07:33:38.578Z,3.67
2022-11-24T07:34:41.380Z,3.87
2022-11-24T07:35:44.784Z,4.53
2022-11-24T07:36:47.943Z,3.58
2022-11-24T07:37:50.811Z,4.65
2022-11-24T07:38:53.671Z,4.62
2022-11-24T07:39:56.584Z,3.95
2022-11-24T07:41:03.636Z,4.05
2022-11-24T07:42:08.679Z,3.53
2022-11-24T07:43:15.800Z,4.35
2022-11-24T07:44:21.408Z,4.12
2022-11-24T07:45:24.320Z,4.03
2022-11-24T07:46:27.099Z,4.05
2022-11-24T07:47:29.869Z,3.25
2022-11-24T07:48:32.791Z,3.22
2022-11-24T07:49:35.654Z,3.67
2022-11-24T07:50:38.477Z,4.10
2022-11-24T07:51:41.455Z,4.70
2022-11-24T07:52:44.427Z,3.50
2022-11-24T07:53:48.105Z,5.12
2022-11-24T07:54:50.787Z,3.60
2022-11-24T07:55:55.794Z,4.45
2022-11-24T07:56:58.586Z,4.05
2022-11-24T07:58:01.950Z,3.58
2022-11-24T07:59:05.132Z,3.72
2022-11-24T08:00:08.922Z,4.55
2022-11-24T08:01:14.822Z,4.68
2022-11-24T08:02:17.728Z,4.37
2022-11-24T08:03:20.822Z,4.50
2022-11-24T08:04:23.719Z,3.35
2022-11-24T08:05:26.916Z,5.25
2022-11-24T08:06:38.458Z,5.03
2022-11-24T08:07:43.579Z,3.65
2022-11-24T08:08:47.206Z,3.55
2022-11-24T08:09:52.362Z,3.40
2022-11-24T08:10:55.169Z,5.10
2022-11-24T08:11:57.897Z,5.37
2022-11-24T08:13:01.475Z,4.87
2022-11-24T08:14:04.342Z,4.07
2022-11-24T08:15:11.746Z,4.47
2022-11-24T08:16:17.151Z,3.95
2022-11-24T08:17:20.489Z,4.20
2022-11-24T08:18:24.892Z,4.85
2022-11-24T08:19:27.773Z,5.07
2022-11-24T08:20:30.820Z,4.80
2022-11-24T08:21:33.608Z,5.68
2022-11-24T08:22:39.759Z,4.03
2022-11-24T08:23:44.047Z,4.40
2022-11-24T08:24:47.340Z,2.80
2022-11-24T08:25:57.001Z,3.58
2022-11-24T08:27:00.031Z,3.80
2022-11-24T08:28:04.383Z,4.68
2022-11-24T08:29:07.339Z,4.60
2022-11-24T08:30:10.835Z,5.12
2022-11-24T08:31:17.327Z,3.70
2022-11-24T08:32:22.396Z,4.95
2022-11-24T08:33:25.518Z,4.68
2022-11-24T08:34:28.209Z,4.47
2022-11-24T08:35:30.991Z,5.00
2022-11-24T08:36:34.960Z,5.45
2022-11-24T08:37:37.763Z,4.10
2022-11-24T08:38:41.091Z,3.08
2022-11-24T08:39:43.965Z,5.43
2022-11-24T08:40:46.854Z,3.42
2022-11-24T08:41:49.832Z,5.50
2022-11-24T08:42:53.126Z,4.60
2022-11-24T08:43:56.282Z,5.70
2022-11-24T08:44:59.337Z,4.10
2022-11-24T08:46:05.071Z,5.53
2022-11-24T08:47:08.007Z,5.32
2022-11-24T08:48:10.832Z,5.07
2022-11-24T08:49:16.347Z,6.20
2022-11-24T08:50:19.112Z,5.45
2022-11-24T08:51:26.491Z,4.35
2022-11-24T08:52:29.430Z,4.12
2022-11-24T08:53:32.266Z,5.25
2022-11-24T08:54:35.406Z,4.95
2022-11-24T08:55:38.394Z,5.43
2022-11-24T08:56:41.633Z,5.35
2022-11-24T08:57:44.462Z,4.22
2022-11-24T08:58:47.421Z,4.55
2022-11-24T08:59:50.634Z,4.22
2022-11-24T09:00:53.348Z,5.35
2022-11-24T09:01:56.450Z,4.95
2022-11-24T09:02:59.752Z,4.20
2022-11-24T09:04:02.508Z,4.85
2022-11-24T09:05:28.718Z,4.80
2022-11-24T09:06:31.843Z,4.37
2022-11-24T09:07:35.302Z,4.65
2022-11-24T09:08:39.024Z,4.82
2022-11-24T09:09:41.800Z,3.90
2022-11-24T09:10:44.787Z,4.47
2022-11-24T09:11:47.836Z,4.78
2022-11-24T09:12:51.525Z,5.03
2022-11-24T09:13:55.061Z,3.95
2022-11-24T09:14:57.750Z,4.68
2022-11-24T09:16:11.913Z,3.20
2022-11-24T09:17:16.600Z,4.30
2022-11-24T09:18:19.579Z,3.70
2022-11-24T09:19:22.495Z,4.03
2022-11-24T09:20:25.399Z,4.62
2022-11-24T09:21:29.630Z,3.83
2022-11-24T09:22:32.598Z,4.65
2022-11-24T09:23:36.178Z,5.05
2022-11-24T09:24:38.898Z,3.78
2022-11-24T09:25:41.625Z,4.03
2022-11-24T09:26:47.980Z,3.80
2022-11-24T09:27:51.554Z,4.20
2022-11-24T09:28:55.769Z,4.07
2022-11-24T09:29:58.848Z,4.18
2022-11-24T09:31:04.022Z,4.47
2022-11-24T09:32:07.255Z,4.70
2022-11-24T09:33:10.119Z,3.62
2022-11-24T09:34:15.094Z,3.70
2022-11-24T09:35:17.914Z,3.70
2022-11-24T09:36:22.095Z,4.37
2022-11-24T09:37:29.603Z,4.80
2022-11-24T09:38:36.392Z,3.78
2022-11-24T09:39:39.324Z,4.43
2022-11-24T09:40:42.582Z,3.97
2022-11-24T09:41:52.672Z,3.90
2022-11-24T09:43:07.302Z,4.80
2022-11-24T09:44:46.246Z,4.43
2022-11-24T09:46:06.083Z,3.37
2022-11-24T09:47:13.099Z,3.65
2022-11-24T09:48:35.392Z,4.70
2022-11-24T09:49:51.053Z,2.65
2022-11-24T09:50:58.040Z,4.30
2022-11-24T09:52:08.523Z,4.30
2022-11-24T09:53:22.607Z,4.32
2022-11-24T09:54:30.094Z,4.70
2022-11-24T09:55:51.812Z,3.70
2022-11-24T09:56:58.990Z,4.10
2022-11-24T09:58:39.763Z,4.12
2022-11-24T09:59:42.928Z,4.37
2022-11-24T10:00:48.913Z,4.15
2022-11-24T10:01:52.791Z,3.78
2022-11-24T10:02:59.677Z,4.20
2022-11-24T10:04:06.407Z,3.30
2022-11-24T10:05:12.777Z,3.87
2022-11-24T10:06:20.981Z,3.10
2022-11-24T10:07:55.503Z,3.47
2022-11-24T10:09:19.820Z,3.97
2022-11-24T10:10:43.807Z,5.05
2022-11-24T10:11:52.203Z,4.47
2022-11-24T10:13:00.895Z,4.22
2022-11-24T10:14:31.189Z,4.57
2022-11-24T10:15:57.688Z,4.05
2022-11-24T10:17:06.451Z,4.00
2022-11-24T10:18:51.506Z,2.58
2022-11-24T10:20:02.723Z,4.65
2022-11-24T10:21:06.195Z,3.53
2022-11-24T10:22:33.134Z,4.12
2022-11-24T10:23:54.754Z,4.10
2022-11-24T10:25:17.918Z,4.35
2022-11-24T10:26:36.709Z,2.80
2022-11-24T10:27:47.135Z,3.37
2022-11-24T10:28:55.121Z,3.67
2022-11-24T10:29:59.225Z,3.83
2022-11-24T10:31:30.397Z,4.22
2022-11-24T10:32:41.425Z,3.25
2022-11-24T10:35:18.972Z,3.78
2022-11-24T10:36:43.066Z,3.17
2022-11-24T10:37:54.843Z,3.95
2022-11-24T10:39:06.413Z,4.53
2022-11-24T10:42:00.877Z,3.10
2022-11-24T10:43:06.635Z,3.90
2022-11-24T10:44:15.901Z,2.95
2022-11-24T10:45:25.119Z,4.47
2022-11-24T10:46:31.399Z,4.50
2022-11-24T10:47:36.792Z,3.80
2022-11-24T10:49:04.935Z,3.00
2022-11-24T10:50:13.450Z,3.60
2022-11-24T10:51:47.798Z,3.83
2022-11-24T10:53:07.452Z,4.15
2022-11-24T10:54:18.616Z,4.55
2022-11-24T10:55:21.761Z,3.22
2022-11-24T10:56:24.928Z,4.53
2022-11-24T10:57:48.058Z,3.70
2022-11-24T10:58:50.958Z,3.35
2022-11-24T10:59:53.712Z,4.12
2022-11-24T11:00:59.167Z,3.62
2022-11-24T11:02:03.014Z,5.20
2022-11-24T11:03:45.566Z,4.50
2022-11-24T11:04:48.207Z,3.95
2022-11-24T11:06:13.090Z,4.82
2022-11-24T11:07:26.789Z,4.20
2022-11-24T11:08:31.258Z,2.95
2022-11-24T11:09:34.152Z,3.15
2022-11-24T11:10:37.149Z,3.33
2022-11-24T11:11:40.525Z,3.78
2022-11-24T11:12:44.616Z,3.12
2022-11-24T11:13:53.439Z,3.17
2022-11-24T11:15:22.487Z,3.62
2022-11-24T11:16:56.250Z,3.25
2022-11-24T11:18:02.330Z,4.20
2022-11-24T11:19:47.841Z,3.92
2022-11-24T11:20:58.262Z,4.03
2022-11-24T11:22:18.960Z,2.95
2022-11-24T11:23:31.328Z,2.20
2022-11-24T11:24:34.036Z,2.03
2022-11-24T11:25:38.387Z,2.90
2022-11-24T11:26:42.622Z,3.17
2022-11-24T11:27:45.448Z,3.62
2022-11-24T11:34:50.747Z,3.70
2022-11-24T11:35:53.585Z,2.80
2022-11-24T11:36:57.572Z,3.25
2022-11-24T11:38:03.384Z,1.83
2022-11-24T11:39:06.652Z,3.42
2022-11-24T11:40:24.754Z,3.22
2022-11-24T11:41:34.371Z,2.80
2022-11-24T11:43:04.111Z,2.85
2022-11-24T11:44:25.232Z,3.03
2022-11-24T11:45:37.814Z,2.70
2022-11-24T11:46:44.094Z,2.33
2022-11-24T11:47:55.876Z,3.30
2022-11-24T11:48:59.050Z,2.83
2022-11-24T11:50:02.591Z,2.80
2022-11-24T11:51:27.078Z,3.08
2022-11-24T11:53:02.299Z,3.00
2022-11-24T11:54:23.545Z,2.95
2022-11-24T11:55:46.610Z,2.47
2022-11-24T11:57:22.029Z,1.95
2022-11-24T11:58:47.275Z,1.85
2022-11-24T12:00:02.474Z,2.35
2022-11-24T12:01:24.838Z,2.47
2022-11-24T12:02:53.303Z,1.98
2022-11-24T12:04:22.043Z,2.20
2022-11-24T12:06:06.809Z,2.20
2022-11-24T12:07:27.927Z,3.40
2022-11-24T12:09:19.071Z,2.00
2022-11-24T12:10:45.676Z,2.03
2022-11-24T12:11:48.624Z,2.22
2022-11-24T12:13:28.786Z,3.00
2022-11-24T12:14:57.738Z,2.37
2022-11-24T12:16:31.269Z,2.67
2022-11-24T12:17:59.765Z,1.87
2022-11-24T12:19:24.257Z,2.35
2022-11-24T12:20:35.629Z,1.50
2022-11-24T12:22:00.280Z,2.78
2022-11-24T12:23:18.543Z,2.03
2022-11-24T12:24:41.777Z,2.45
2022-11-24T12:25:54.917Z,2.00
2022-11-24T12:27:04.663Z,2.10
2022-11-24T12:28:38.537Z,1.80
2022-11-24T12:30:16.953Z,3.28
2022-11-24T12:31:40.340Z,2.17
2022-11-24T12:32:48.945Z,2.30
2022-11-24T12:34:13.612Z,3.00
2022-11-24T12:35:31.746Z,2.15
2022-11-24T12:36:59.037Z,2.87
2022-11-24T12:38:28.466Z,1.85
2022-11-24T12:40:00.186Z,1.98
2022-11-24T12:41:44.438Z,2.22
2022-11-24T12:42:48.003Z,1.45
2022-11-24T12:43:53.264Z,2.83
2022-11-24T12:45:22.572Z,2.53
2022-11-24T12:46:47.343Z,2.45
2022-11-24T12:47:56.041Z,2.53
2022-11-24T12:49:27.500Z,2.15
2022-11-24T12:50:35.857Z,2.33
2022-11-24T12:51:44.074Z,2.30
2022-11-24T12:53:09.367Z,2.78
2022-11-24T12:54:20.389Z,2.42
2022-11-24T12:55:24.293Z,2.58
2022-11-24T12:56:37.822Z,2.45
2022-11-24T12:57:47.461Z,1.90
2022-11-24T12:59:05.875Z,2.20
2022-11-24T13:00:20.958Z,2.58
2022-11-24T13:01:35.982Z,2.50
2022-11-24T13:03:16.748Z,2.42
2022-11-24T13:04:38.025Z,2.05
2022-11-24T13:06:07.577Z,2.28
2022-11-24T13:07:15.993Z,1.70
2022-11-24T13:08:19.931Z,2.75
2022-11-24T13:09:22.753Z,2.15
2022-11-24T13:10:46.933Z,2.22
2022-11-24T13:11:50.520Z,2.50
2022-11-24T13:13:07.571Z,2.10
2022-11-24T13:14:23.548Z,2.55
2022-11-24T13:15:45.773Z,1.85
2022-11-24T13:17:21.918Z,2.47
2022-11-24T13:18:48.144Z,2.60
2022-11-24T13:19:51.492Z,2.72
2022-11-24T13:20:54.560Z,1.67
2022-11-24T13:22:09.604Z,3.05
2022-11-24T13:23:25.666Z,2.83
2022-11-24T13:24:36.726Z,2.22
2022-11-24T13:25:39.869Z,2.87
2022-11-24T13:26:42.614Z,2.33
2022-11-24T13:27:53.728Z,2.65
2022-11-24T13:29:23.822Z,2.12
2022-11-24T13:30:33.873Z,2.00
2022-11-24T13:31:37.177Z,2.37
2022-11-24T13:32:40.027Z,2.60
2022-11-24T13:33:42.928Z,1.77
2022-11-24T13:34:55.422Z,2.42
2022-11-24T13:36:07.771Z,2.33
2022-11-24T13:37:39.717Z,3.00
2022-11-24T13:38:46.468Z,2.53
2022-11-24T13:40:04.133Z,2.10
2022-11-24T13:41:28.325Z,2.72
2022-11-24T13:42:41.158Z,2.30
2022-11-24T13:44:16.357Z,2.47
2022-11-24T13:45:41.293Z,1.87
2022-11-24T13:47:06.761Z,2.00
2022-11-24T13:48:19.475Z,2.10
2022-11-24T13:49:22.495Z,1.48
2022-11-24T13:50:51.567Z,2.30
2022-11-24T13:51:57.704Z,2.62
2022-11-24T13:53:15.897Z,2.83
2022-11-24T13:54:19.168Z,2.12
2022-11-24T13:55:26.175Z,2.12
2022-11-24T13:56:31.124Z,2.00
2022-11-24T13:57:36.543Z,2.08
2022-11-24T13:58:54.138Z,2.62
2022-11-24T14:00:03.314Z,2.55
2022-11-24T14:01:28.563Z,2.70
2022-11-24T14:02:34.939Z,1.98
2022-11-24T14:05:46.714Z,2.08
2022-11-24T14:06:55.916Z,2.67
2022-11-24T14:08:02.695Z,1.77
2022-11-24T14:09:28.462Z,3.40
2022-11-24T14:10:35.052Z,2.42
2022-11-24T14:11:38.267Z,2.50
2022-11-24T14:12:41.198Z,1.85
2022-11-24T14:13:44.335Z,2.72
2022-11-24T14:14:49.122Z,2.42
2022-11-24T14:16:03.275Z,1.75
2022-11-24T14:17:17.524Z,2.62
2022-11-24T14:18:23.024Z,2.20
2022-11-24T14:19:30.771Z,2.00
2022-11-24T14:20:33.799Z,2.47
2022-11-24T14:21:44.633Z,2.83
2022-11-24T14:22:47.363Z,1.80
2022-11-24T14:23:52.633Z,2.60
2022-11-24T14:24:57.964Z,1.80
2022-11-24T14:26:00.622Z,2.12
2022-11-24T14:27:03.417Z,2.12
2022-11-24T14:28:23.600Z,2.67
2022-11-24T14:29:30.533Z,2.37
2022-11-24T14:30:34.191Z,2.20
2022-11-24T14:31:37.368Z,2.25
2022-11-24T14:32:40.784Z,3.20
2022-11-24T14:33:43.666Z,2.55
2022-11-24T14:34:46.654Z,1.75
2022-11-24T14:35:51.328Z,2.62
2022-11-24T14:36:56.781Z,2.05
2022-11-24T14:38:02.753Z,1.80
2022-11-24T14:39:05.914Z,2.70
2022-11-24T14:40:43.016Z,2.20
2022-11-24T14:41:58.115Z,1.92
2022-11-24T14:43:00.901Z,1.87
2022-11-24T14:44:18.735Z,2.25
2022-11-24T14:45:21.552Z,2.05
2022-11-24T14:46:24.549Z,2.97
2022-11-24T14:47:32.096Z,2.67
2022-11-24T14:48:47.213Z,2.15
2022-11-24T14:49:52.068Z,1.65
2022-11-24T14:51:13.936Z,2.25
2022-11-24T14:52:20.316Z,2.72
2022-11-24T14:53:27.340Z,2.40
2022-11-24T14:54:31.181Z,2.87
2022-11-24T14:55:39.422Z,1.77
2022-11-24T14:56:55.680Z,2.25
2022-11-24T14:57:59.988Z,2.72
2022-11-24T14:59:03.474Z,2.58
2022-11-24T15:00:25.002Z,2.50
2022-11-24T15:01:27.805Z,2.47
2022-11-24T15:02:44.820Z,2.25
2022-11-24T15:06:02.524Z,1.92
2022-11-24T15:07:19.696Z,4.45
2022-11-24T15:08:26.497Z,3.10
2022-11-24T15:09:48.068Z,1.80
2022-11-24T15:11:00.914Z,2.83
2022-11-24T15:12:12.738Z,2.00
2022-11-24T15:14:49.886Z,2.35
2022-11-24T15:16:19.465Z,1.80
2022-11-24T15:17:29.647Z,2.50
2022-11-24T15:18:37.966Z,2.00
2022-11-24T15:19:40.858Z,2.33
2022-11-24T15:20:46.688Z,2.17